N511EM MDMC-MDCR
Flight info
| Callsign | N511EM |
|---|---|
| Flight time | 0h 57m |
| Altitude | 16000 |
| Route | DCT ONPAD DCT KATLU DCT MTPP DCT KANIX DCT KENOK DCT |
| Aircraft | K100/L-SBDGRY/S |
Departure
| Time | 2026-04-28 02:53 |
|---|---|
| Airport | Monte Cristi Airport (MDMC) |
Arrival
| Time | 2026-04-28 03:50 |
|---|---|
| Airport | Cabo Rojo Airport (MDCR) |
| Time | Latitude | Longitude | Altitude | Speed | Heading |
|---|---|---|---|---|---|
| 2026-04-28 02:42 | 19.86353 | -71.64655 | 41 ft | 0 kts | 240° |
| 2026-04-28 02:50 | 19.86352 | -71.64658 | 41 ft | 3 kts | 247° |
| 2026-04-28 02:50 | 19.86373 | -71.64691 | 42 ft | 8 kts | 319° |
| 2026-04-28 02:50 | 19.86381 | -71.64721 | 42 ft | 5 kts | 240° |
| 2026-04-28 02:51 | 19.86348 | -71.64764 | 43 ft | 9 kts | 231° |
| 2026-04-28 02:51 | 19.86313 | -71.64811 | 45 ft | 3 kts | 118° |
| 2026-04-28 02:51 | 19.86321 | -71.64799 | 44 ft | 8 kts | 50° |
| 2026-04-28 02:51 | 19.86472 | -71.64600 | 42 ft | 63 kts | 50° |
| 2026-04-28 02:52 | 19.86826 | -71.64162 | 134 ft | 86 kts | 50° |
| 2026-04-28 02:52 | 19.87284 | -71.63639 | 232 ft | 110 kts | 51° |
| 2026-04-28 02:52 | 19.87828 | -71.63007 | 407 ft | 120 kts | 47° |
| 2026-04-28 02:52 | 19.88613 | -71.62611 | 709 ft | 129 kts | 6° |
| 2026-04-28 02:53 | 19.89505 | -71.62801 | 969 ft | 139 kts | 349° |
| 2026-04-28 02:53 | 19.90471 | -71.63061 | 1209 ft | 143 kts | 351° |
| 2026-04-28 02:53 | 19.91411 | -71.63284 | 1637 ft | 137 kts | 352° |
| 2026-04-28 02:53 | 19.92281 | -71.63720 | 1953 ft | 146 kts | 313° |
| 2026-04-28 02:54 | 19.92515 | -71.64728 | 2287 ft | 148 kts | 256° |
| 2026-04-28 02:54 | 19.92032 | -71.65676 | 2615 ft | 147 kts | 236° |
| 2026-04-28 02:54 | 19.91475 | -71.66607 | 2896 ft | 150 kts | 236° |
| 2026-04-28 02:54 | 19.90916 | -71.67550 | 3176 ft | 151 kts | 237° |
| 2026-04-28 02:55 | 19.90341 | -71.68475 | 3454 ft | 149 kts | 225° |
| 2026-04-28 02:55 | 19.89435 | -71.68919 | 3729 ft | 145 kts | 189° |
| 2026-04-28 02:55 | 19.88443 | -71.69119 | 4035 ft | 145 kts | 189° |
| 2026-04-28 02:55 | 19.87448 | -71.69329 | 4347 ft | 146 kts | 190° |
| 2026-04-28 02:56 | 19.86448 | -71.69514 | 4659 ft | 146 kts | 188° |
| 2026-04-28 02:56 | 19.85441 | -71.69679 | 4957 ft | 146 kts | 189° |
| 2026-04-28 02:56 | 19.84436 | -71.69851 | 5242 ft | 147 kts | 189° |
| 2026-04-28 02:56 | 19.83427 | -71.70027 | 5520 ft | 147 kts | 188° |
| 2026-04-28 02:57 | 19.82411 | -71.70204 | 5808 ft | 148 kts | 189° |
| 2026-04-28 02:57 | 19.81401 | -71.70382 | 6089 ft | 147 kts | 189° |
| 2026-04-28 02:57 | 19.80390 | -71.70559 | 6367 ft | 147 kts | 189° |
| 2026-04-28 02:57 | 19.79380 | -71.70736 | 6627 ft | 147 kts | 189° |
| 2026-04-28 02:58 | 19.78369 | -71.70912 | 6875 ft | 147 kts | 190° |
| 2026-04-28 02:58 | 19.77356 | -71.71089 | 7126 ft | 148 kts | 190° |
| 2026-04-28 02:58 | 19.76340 | -71.71267 | 7370 ft | 148 kts | 190° |
| 2026-04-28 02:58 | 19.75324 | -71.71445 | 7601 ft | 148 kts | 190° |
| 2026-04-28 02:59 | 19.74318 | -71.71620 | 7837 ft | 148 kts | 191° |
| 2026-04-28 02:59 | 19.73300 | -71.71798 | 8076 ft | 148 kts | 191° |
| 2026-04-28 02:59 | 19.72280 | -71.71976 | 8293 ft | 149 kts | 191° |
| 2026-04-28 02:59 | 19.71258 | -71.72155 | 8526 ft | 149 kts | 191° |
| 2026-04-28 03:00 | 19.70234 | -71.72334 | 8760 ft | 149 kts | 191° |
| 2026-04-28 03:00 | 19.69211 | -71.72513 | 8988 ft | 149 kts | 191° |
| 2026-04-28 03:00 | 19.68184 | -71.72692 | 9209 ft | 149 kts | 191° |
| 2026-04-28 03:00 | 19.67157 | -71.72870 | 9427 ft | 150 kts | 192° |
| 2026-04-28 03:01 | 19.66128 | -71.73050 | 9637 ft | 150 kts | 192° |
| 2026-04-28 03:01 | 19.65097 | -71.73230 | 9843 ft | 150 kts | 192° |
| 2026-04-28 03:01 | 19.64062 | -71.73411 | 10044 ft | 151 kts | 192° |
| 2026-04-28 03:01 | 19.63027 | -71.73591 | 10220 ft | 151 kts | 192° |
| 2026-04-28 03:02 | 19.61989 | -71.73773 | 10395 ft | 151 kts | 192° |
| 2026-04-28 03:02 | 19.60954 | -71.73964 | 10568 ft | 151 kts | 197° |
| 2026-04-28 03:02 | 19.60029 | -71.74453 | 10730 ft | 149 kts | 217° |
| 2026-04-28 03:02 | 19.59170 | -71.75075 | 10894 ft | 150 kts | 215° |
| 2026-04-28 03:03 | 19.58300 | -71.75687 | 11056 ft | 150 kts | 215° |
| 2026-04-28 03:03 | 19.57433 | -71.76301 | 11219 ft | 150 kts | 215° |
| 2026-04-28 03:03 | 19.56565 | -71.76918 | 11368 ft | 150 kts | 215° |
| 2026-04-28 03:03 | 19.55695 | -71.77538 | 11543 ft | 150 kts | 215° |
| 2026-04-28 03:04 | 19.54825 | -71.78157 | 11702 ft | 151 kts | 215° |
| 2026-04-28 03:04 | 19.53955 | -71.78775 | 11854 ft | 151 kts | 215° |
| 2026-04-28 03:04 | 19.53084 | -71.79395 | 12007 ft | 151 kts | 215° |
| 2026-04-28 03:04 | 19.52210 | -71.80017 | 12157 ft | 152 kts | 214° |
| 2026-04-28 03:05 | 19.51625 | -71.80431 | 12243 ft | 153 kts | 214° |
| 2026-04-28 03:05 | 19.50741 | -71.81059 | 12390 ft | 153 kts | 215° |
| 2026-04-28 03:05 | 19.49856 | -71.81688 | 12543 ft | 153 kts | 215° |
| 2026-04-28 03:05 | 19.48969 | -71.82318 | 12683 ft | 154 kts | 215° |
| 2026-04-28 03:06 | 19.48077 | -71.82952 | 12825 ft | 154 kts | 215° |
| 2026-04-28 03:06 | 19.46897 | -71.83790 | 13001 ft | 155 kts | 215° |
| 2026-04-28 03:06 | 19.46294 | -71.84217 | 13097 ft | 155 kts | 215° |
| 2026-04-28 03:06 | 19.45399 | -71.84853 | 13199 ft | 154 kts | 216° |
| 2026-04-28 03:07 | 19.44506 | -71.85484 | 13314 ft | 155 kts | 215° |
| 2026-04-28 03:07 | 19.43620 | -71.86116 | 13449 ft | 155 kts | 215° |
| 2026-04-28 03:07 | 19.42721 | -71.86755 | 13582 ft | 156 kts | 215° |
| 2026-04-28 03:07 | 19.41817 | -71.87397 | 13730 ft | 156 kts | 215° |
| 2026-04-28 03:08 | 19.40915 | -71.88036 | 13859 ft | 156 kts | 215° |
| 2026-04-28 03:08 | 19.40012 | -71.88677 | 13981 ft | 156 kts | 216° |
| 2026-04-28 03:08 | 19.39112 | -71.89315 | 14086 ft | 156 kts | 216° |
| 2026-04-28 03:08 | 19.38207 | -71.89958 | 14196 ft | 157 kts | 216° |
| 2026-04-28 03:09 | 19.37301 | -71.90601 | 14317 ft | 157 kts | 216° |
| 2026-04-28 03:09 | 19.36394 | -71.91245 | 14434 ft | 157 kts | 216° |
| 2026-04-28 03:09 | 19.35485 | -71.91889 | 14546 ft | 157 kts | 216° |
| 2026-04-28 03:09 | 19.34574 | -71.92535 | 14654 ft | 157 kts | 216° |
| 2026-04-28 03:10 | 19.33663 | -71.93181 | 14754 ft | 158 kts | 216° |
| 2026-04-28 03:10 | 19.32754 | -71.93826 | 14857 ft | 158 kts | 216° |
| 2026-04-28 03:10 | 19.31839 | -71.94474 | 14955 ft | 158 kts | 216° |
| 2026-04-28 03:10 | 19.30926 | -71.95120 | 15058 ft | 158 kts | 216° |
| 2026-04-28 03:11 | 19.30011 | -71.95768 | 15153 ft | 159 kts | 216° |
| 2026-04-28 03:11 | 19.29093 | -71.96419 | 15241 ft | 159 kts | 216° |
| 2026-04-28 03:11 | 19.28188 | -71.97060 | 15318 ft | 159 kts | 216° |
| 2026-04-28 03:11 | 19.27268 | -71.97710 | 15387 ft | 158 kts | 216° |
| 2026-04-28 03:12 | 19.26349 | -71.98359 | 15474 ft | 159 kts | 216° |
| 2026-04-28 03:12 | 19.25425 | -71.99014 | 15538 ft | 160 kts | 217° |
| 2026-04-28 03:12 | 19.24501 | -71.99669 | 15629 ft | 160 kts | 216° |
| 2026-04-28 03:12 | 19.23577 | -72.00322 | 15706 ft | 160 kts | 217° |
| 2026-04-28 03:13 | 19.22652 | -72.00977 | 15773 ft | 160 kts | 217° |
| 2026-04-28 03:13 | 19.21723 | -72.01634 | 15831 ft | 161 kts | 216° |
| 2026-04-28 03:13 | 19.20790 | -72.02295 | 15899 ft | 161 kts | 216° |
| 2026-04-28 03:13 | 19.19856 | -72.02956 | 15963 ft | 162 kts | 216° |
| 2026-04-28 03:14 | 19.18922 | -72.03617 | 16040 ft | 161 kts | 216° |
| 2026-04-28 03:14 | 19.17978 | -72.04286 | 16047 ft | 165 kts | 216° |
| 2026-04-28 03:14 | 19.17016 | -72.04969 | 16048 ft | 169 kts | 216° |
| 2026-04-28 03:14 | 19.16030 | -72.05667 | 16045 ft | 171 kts | 216° |
| 2026-04-28 03:15 | 19.15032 | -72.06372 | 16050 ft | 173 kts | 216° |
| 2026-04-28 03:15 | 19.14028 | -72.07081 | 16050 ft | 174 kts | 216° |
| 2026-04-28 03:15 | 19.13017 | -72.07795 | 16051 ft | 175 kts | 216° |
| 2026-04-28 03:15 | 19.12006 | -72.08509 | 16051 ft | 175 kts | 216° |
| 2026-04-28 03:16 | 19.10994 | -72.09225 | 16049 ft | 175 kts | 216° |
| 2026-04-28 03:16 | 19.09981 | -72.09940 | 16049 ft | 175 kts | 216° |
| 2026-04-28 03:16 | 19.08967 | -72.10656 | 16048 ft | 175 kts | 216° |
| 2026-04-28 03:16 | 19.07952 | -72.11372 | 16050 ft | 176 kts | 216° |
| 2026-04-28 03:17 | 19.06948 | -72.12080 | 16048 ft | 176 kts | 216° |
| 2026-04-28 03:17 | 19.04908 | -72.13519 | 16049 ft | 176 kts | 216° |
| 2026-04-28 03:17 | 19.03885 | -72.14241 | 16043 ft | 177 kts | 216° |
| 2026-04-28 03:18 | 19.02861 | -72.14963 | 16047 ft | 177 kts | 216° |
| 2026-04-28 03:18 | 19.01838 | -72.15683 | 16048 ft | 177 kts | 216° |
| 2026-04-28 03:18 | 19.00815 | -72.16404 | 16049 ft | 177 kts | 215° |
| 2026-04-28 03:18 | 18.99690 | -72.16931 | 16046 ft | 179 kts | 198° |
| 2026-04-28 03:19 | 18.98489 | -72.17270 | 16047 ft | 179 kts | 199° |
| 2026-04-28 03:19 | 18.97290 | -72.17633 | 16047 ft | 179 kts | 199° |
| 2026-04-28 03:19 | 18.96090 | -72.17993 | 16047 ft | 179 kts | 199° |
| 2026-04-28 03:19 | 18.94890 | -72.18348 | 16047 ft | 179 kts | 199° |
| 2026-04-28 03:20 | 18.93691 | -72.18703 | 16044 ft | 179 kts | 199° |
| 2026-04-28 03:20 | 18.92491 | -72.19057 | 16045 ft | 179 kts | 199° |
| 2026-04-28 03:20 | 18.91291 | -72.19412 | 16037 ft | 179 kts | 199° |
| 2026-04-28 03:20 | 18.90103 | -72.19764 | 16037 ft | 180 kts | 199° |
| 2026-04-28 03:21 | 18.88898 | -72.20122 | 16038 ft | 180 kts | 199° |
| 2026-04-28 03:21 | 18.87691 | -72.20479 | 16038 ft | 180 kts | 199° |
| 2026-04-28 03:21 | 18.86486 | -72.20835 | 16038 ft | 180 kts | 199° |
| 2026-04-28 03:21 | 18.85284 | -72.21190 | 16038 ft | 179 kts | 199° |
| 2026-04-28 03:22 | 18.84085 | -72.21548 | 16032 ft | 179 kts | 199° |
| 2026-04-28 03:22 | 18.82889 | -72.21899 | 16036 ft | 179 kts | 199° |
| 2026-04-28 03:22 | 18.81688 | -72.22254 | 16035 ft | 179 kts | 199° |
| 2026-04-28 03:22 | 18.80488 | -72.22610 | 16036 ft | 179 kts | 199° |
| 2026-04-28 03:23 | 18.79288 | -72.22966 | 16039 ft | 179 kts | 199° |
| 2026-04-28 03:23 | 18.78086 | -72.23321 | 16042 ft | 179 kts | 199° |
| 2026-04-28 03:23 | 18.76886 | -72.23676 | 16040 ft | 179 kts | 199° |
| 2026-04-28 03:23 | 18.75692 | -72.24028 | 16041 ft | 178 kts | 199° |
| 2026-04-28 03:24 | 18.74512 | -72.24377 | 16040 ft | 178 kts | 199° |
| 2026-04-28 03:24 | 18.73319 | -72.24730 | 16038 ft | 178 kts | 199° |
| 2026-04-28 03:24 | 18.72126 | -72.25083 | 16041 ft | 178 kts | 199° |
| 2026-04-28 03:24 | 18.70929 | -72.25437 | 16040 ft | 179 kts | 199° |
| 2026-04-28 03:25 | 18.69725 | -72.25794 | 16037 ft | 180 kts | 199° |
| 2026-04-28 03:25 | 18.68518 | -72.26151 | 16037 ft | 181 kts | 199° |
| 2026-04-28 03:25 | 18.67309 | -72.26507 | 16037 ft | 180 kts | 199° |
| 2026-04-28 03:25 | 18.66101 | -72.26864 | 16039 ft | 180 kts | 199° |
| 2026-04-28 03:26 | 18.64891 | -72.27221 | 16043 ft | 180 kts | 199° |
| 2026-04-28 03:26 | 18.63681 | -72.27578 | 16042 ft | 180 kts | 199° |
| 2026-04-28 03:26 | 18.62477 | -72.27933 | 16043 ft | 180 kts | 199° |
| 2026-04-28 03:26 | 18.61267 | -72.28290 | 16043 ft | 180 kts | 199° |
| 2026-04-28 03:27 | 18.60052 | -72.28650 | 15999 ft | 182 kts | 198° |
| 2026-04-28 03:27 | 18.58820 | -72.28854 | 15997 ft | 184 kts | 182° |
| 2026-04-28 03:27 | 18.57557 | -72.28605 | 15996 ft | 187 kts | 163° |
| 2026-04-28 03:27 | 18.56429 | -72.27902 | 15996 ft | 191 kts | 144° |
| 2026-04-28 03:28 | 18.55407 | -72.27009 | 16000 ft | 191 kts | 144° |
| 2026-04-28 03:28 | 18.54376 | -72.26128 | 16001 ft | 191 kts | 144° |
| 2026-04-28 03:28 | 18.53346 | -72.25245 | 16007 ft | 191 kts | 144° |
| 2026-04-28 03:28 | 18.52315 | -72.24357 | 16007 ft | 191 kts | 144° |
| 2026-04-28 03:29 | 18.51286 | -72.23472 | 16007 ft | 191 kts | 145° |
| 2026-04-28 03:29 | 18.50258 | -72.22587 | 16006 ft | 191 kts | 145° |
| 2026-04-28 03:29 | 18.49232 | -72.21703 | 16007 ft | 190 kts | 144° |
| 2026-04-28 03:29 | 18.48208 | -72.20822 | 16007 ft | 190 kts | 145° |
| 2026-04-28 03:30 | 18.47180 | -72.19940 | 16004 ft | 191 kts | 145° |
| 2026-04-28 03:30 | 18.46150 | -72.19056 | 16002 ft | 190 kts | 145° |
| 2026-04-28 03:30 | 18.45125 | -72.18173 | 16006 ft | 191 kts | 145° |
| 2026-04-28 03:30 | 18.44094 | -72.17288 | 16008 ft | 191 kts | 144° |
| 2026-04-28 03:31 | 18.43064 | -72.16401 | 16006 ft | 191 kts | 145° |
| 2026-04-28 03:31 | 18.42039 | -72.15525 | 15958 ft | 186 kts | 145° |
| 2026-04-28 03:31 | 18.41054 | -72.14679 | 15827 ft | 180 kts | 144° |
| 2026-04-28 03:31 | 18.40100 | -72.13855 | 15701 ft | 176 kts | 144° |
| 2026-04-28 03:32 | 18.39161 | -72.13047 | 15577 ft | 173 kts | 145° |
| 2026-04-28 03:32 | 18.38231 | -72.12247 | 15416 ft | 173 kts | 145° |
| 2026-04-28 03:32 | 18.37295 | -72.11445 | 15257 ft | 174 kts | 145° |
| 2026-04-28 03:32 | 18.36354 | -72.10639 | 15094 ft | 174 kts | 145° |
| 2026-04-28 03:33 | 18.35415 | -72.09833 | 14929 ft | 174 kts | 145° |
| 2026-04-28 03:33 | 18.34479 | -72.09030 | 14769 ft | 173 kts | 145° |
| 2026-04-28 03:33 | 18.33548 | -72.08231 | 14615 ft | 173 kts | 145° |
| 2026-04-28 03:33 | 18.32632 | -72.07410 | 14445 ft | 173 kts | 142° |
| 2026-04-28 03:34 | 18.31726 | -72.06583 | 14292 ft | 173 kts | 144° |
| 2026-04-28 03:34 | 18.30814 | -72.05763 | 14133 ft | 172 kts | 143° |
| 2026-04-28 03:34 | 18.29908 | -72.04940 | 13976 ft | 172 kts | 143° |
| 2026-04-28 03:34 | 18.29003 | -72.04115 | 13808 ft | 172 kts | 143° |
| 2026-04-28 03:35 | 18.28100 | -72.03292 | 13634 ft | 171 kts | 143° |
| 2026-04-28 03:35 | 18.27200 | -72.02472 | 13443 ft | 171 kts | 143° |
| 2026-04-28 03:35 | 18.26301 | -72.01653 | 13273 ft | 171 kts | 143° |
| 2026-04-28 03:35 | 18.25416 | -72.00847 | 13101 ft | 171 kts | 143° |
| 2026-04-28 03:36 | 18.24515 | -72.00028 | 12914 ft | 172 kts | 142° |
| 2026-04-28 03:36 | 18.23599 | -71.99195 | 12668 ft | 175 kts | 142° |
| 2026-04-28 03:36 | 18.22679 | -71.98359 | 12417 ft | 174 kts | 142° |
| 2026-04-28 03:36 | 18.21771 | -71.97530 | 12168 ft | 172 kts | 142° |
| 2026-04-28 03:37 | 18.20873 | -71.96711 | 11918 ft | 169 kts | 142° |
| 2026-04-28 03:37 | 18.19989 | -71.95907 | 11678 ft | 166 kts | 142° |
| 2026-04-28 03:37 | 18.19119 | -71.95114 | 11425 ft | 166 kts | 142° |
| 2026-04-28 03:37 | 18.18253 | -71.94329 | 11137 ft | 162 kts | 142° |
| 2026-04-28 03:38 | 18.17415 | -71.93566 | 10850 ft | 158 kts | 141° |
| 2026-04-28 03:38 | 18.16592 | -71.92816 | 10568 ft | 155 kts | 141° |
| 2026-04-28 03:38 | 18.15778 | -71.92076 | 10285 ft | 153 kts | 141° |
| 2026-04-28 03:38 | 18.14977 | -71.91347 | 10010 ft | 152 kts | 141° |
| 2026-04-28 03:39 | 18.14182 | -71.90624 | 9709 ft | 150 kts | 141° |
| 2026-04-28 03:39 | 18.13405 | -71.89895 | 9404 ft | 149 kts | 134° |
| 2026-04-28 03:39 | 18.12740 | -71.89059 | 9104 ft | 149 kts | 131° |
| 2026-04-28 03:39 | 18.12074 | -71.88228 | 8806 ft | 148 kts | 131° |
| 2026-04-28 03:40 | 18.11410 | -71.87404 | 8470 ft | 150 kts | 131° |
| 2026-04-28 03:40 | 18.10732 | -71.86564 | 8130 ft | 151 kts | 130° |
| 2026-04-28 03:40 | 18.10056 | -71.85726 | 7778 ft | 150 kts | 130° |
| 2026-04-28 03:40 | 18.09382 | -71.84890 | 7447 ft | 150 kts | 129° |
| 2026-04-28 03:41 | 18.08707 | -71.84052 | 7126 ft | 150 kts | 129° |
| 2026-04-28 03:41 | 18.08031 | -71.83214 | 6805 ft | 150 kts | 128° |
| 2026-04-28 03:41 | 18.07358 | -71.82378 | 6479 ft | 149 kts | 128° |
| 2026-04-28 03:41 | 18.06687 | -71.81545 | 6135 ft | 149 kts | 128° |
| 2026-04-28 03:42 | 18.06023 | -71.80717 | 5792 ft | 148 kts | 128° |
| 2026-04-28 03:42 | 18.05361 | -71.79892 | 5451 ft | 147 kts | 128° |
| 2026-04-28 03:42 | 18.04701 | -71.79067 | 5115 ft | 147 kts | 128° |
| 2026-04-28 03:42 | 18.04044 | -71.78246 | 4779 ft | 147 kts | 128° |
| 2026-04-28 03:43 | 18.03389 | -71.77427 | 4433 ft | 146 kts | 128° |
| 2026-04-28 03:43 | 18.02734 | -71.76609 | 4091 ft | 146 kts | 128° |
| 2026-04-28 03:43 | 18.02088 | -71.75795 | 3754 ft | 145 kts | 128° |
| 2026-04-28 03:43 | 18.01445 | -71.74984 | 3427 ft | 144 kts | 128° |
| 2026-04-28 03:44 | 18.00804 | -71.74173 | 3085 ft | 144 kts | 128° |
| 2026-04-28 03:44 | 18.00171 | -71.73372 | 2743 ft | 144 kts | 128° |
| 2026-04-28 03:44 | 17.99530 | -71.72565 | 2409 ft | 144 kts | 128° |
| 2026-04-28 03:44 | 17.98886 | -71.71759 | 2069 ft | 144 kts | 128° |
| 2026-04-28 03:45 | 17.98274 | -71.70988 | 2004 ft | 129 kts | 127° |
| 2026-04-28 03:45 | 17.97721 | -71.70291 | 2000 ft | 120 kts | 128° |
| 2026-04-28 03:45 | 17.97198 | -71.69629 | 2000 ft | 116 kts | 128° |
| 2026-04-28 03:45 | 17.96694 | -71.68982 | 1998 ft | 114 kts | 128° |
| 2026-04-28 03:46 | 17.96192 | -71.68332 | 2001 ft | 115 kts | 128° |
| 2026-04-28 03:46 | 17.95691 | -71.67683 | 1997 ft | 114 kts | 128° |
| 2026-04-28 03:46 | 17.95191 | -71.67033 | 1980 ft | 114 kts | 128° |
| 2026-04-28 03:46 | 17.94690 | -71.66383 | 1980 ft | 114 kts | 128° |
| 2026-04-28 03:47 | 17.94188 | -71.65738 | 1978 ft | 114 kts | 127° |
| 2026-04-28 03:47 | 17.93667 | -71.65100 | 1882 ft | 121 kts | 135° |
| 2026-04-28 03:47 | 17.92933 | -71.64618 | 1779 ft | 124 kts | 153° |
| 2026-04-28 03:47 | 17.92156 | -71.64289 | 1598 ft | 118 kts | 159° |
| 2026-04-28 03:48 | 17.91421 | -71.63972 | 1342 ft | 111 kts | 144° |
| 2026-04-28 03:48 | 17.90937 | -71.63401 | 1090 ft | 101 kts | 122° |
| 2026-04-28 03:48 | 17.90611 | -71.62808 | 948 ft | 83 kts | 120° |
| 2026-04-28 03:48 | 17.90405 | -71.62311 | 841 ft | 74 kts | 85° |
| 2026-04-28 03:49 | 17.90692 | -71.61843 | 802 ft | 90 kts | 25° |
| 2026-04-28 03:49 | 17.91371 | -71.61724 | 723 ft | 109 kts | 5° |
| 2026-04-28 03:49 | 17.92066 | -71.61996 | 626 ft | 103 kts | 310° |
| 2026-04-28 03:49 | 17.92329 | -71.62637 | 388 ft | 91 kts | 285° |
| 2026-04-28 03:50 | 17.92487 | -71.63238 | 172 ft | 80 kts | 288° |
| 2026-04-28 03:50 | 17.92631 | -71.63706 | 21 ft | 54 kts | 275° |
| 2026-04-28 03:50 | 17.92651 | -71.63784 | 7 ft | 0 kts | 137° |
| 2026-04-28 03:50 | 17.92651 | -71.63783 | 7 ft | 0 kts | 137° |
| 2026-04-28 03:51 | 17.92651 | -71.63784 | 7 ft | 0 kts | 137° |